sensor_id;sensor_type;location;lat;lon;timestamp;pressure;altitude;pressure_sealevel;temperature;humidity
49645;BME280;36494;50.730;-1.932;2022-07-05T00:00:00;101891.71;;;13.40;100.00
49645;BME280;36494;50.730;-1.932;2022-07-05T00:02:25;101893.89;;;13.33;100.00
49645;BME280;36494;50.730;-1.932;2022-07-05T00:04:50;101895.07;;;13.34;100.00
49645;BME280;36494;50.730;-1.932;2022-07-05T00:07:16;101895.25;;;13.32;100.00
49645;BME280;36494;50.730;-1.932;2022-07-05T00:09:41;101896.23;;;13.28;100.00
49645;BME280;36494;50.730;-1.932;2022-07-05T00:12:07;101894.55;;;13.26;100.00
49645;BME280;36494;50.730;-1.932;2022-07-05T00:14:32;101898.48;;;13.24;100.00
49645;BME280;36494;50.730;-1.932;2022-07-05T00:16:57;101896.23;;;13.15;100.00
49645;BME280;36494;50.730;-1.932;2022-07-05T00:19:22;101899.11;;;13.16;100.00
49645;BME280;36494;50.730;-1.932;2022-07-05T00:21:48;101901.30;;;13.14;100.00
49645;BME280;36494;50.730;-1.932;2022-07-05T00:24:13;101902.07;;;13.15;100.00
49645;BME280;36494;50.730;-1.932;2022-07-05T00:26:38;101903.41;;;13.12;100.00
49645;BME280;36494;50.730;-1.932;2022-07-05T00:29:04;101905.78;;;13.09;100.00
49645;BME280;36494;50.730;-1.932;2022-07-05T00:31:29;101901.64;;;12.95;100.00
49645;BME280;36494;50.730;-1.932;2022-07-05T00:33:54;101905.40;;;12.90;100.00
49645;BME280;36494;50.730;-1.932;2022-07-05T00:36:20;101905.67;;;12.89;100.00
49645;BME280;36494;50.730;-1.932;2022-07-05T00:38:45;101906.00;;;12.92;100.00
49645;BME280;36494;50.730;-1.932;2022-07-05T00:41:10;101908.17;;;12.91;100.00
49645;BME280;36494;50.730;-1.932;2022-07-05T00:43:36;101910.43;;;12.91;100.00
49645;BME280;36494;50.730;-1.932;2022-07-05T00:46:01;101912.88;;;12.89;100.00
49645;BME280;36494;50.730;-1.932;2022-07-05T00:48:26;101913.50;;;12.86;100.00
49645;BME280;36494;50.730;-1.932;2022-07-05T00:50:52;101916.61;;;12.83;100.00
49645;BME280;36494;50.730;-1.932;2022-07-05T00:53:18;101912.38;;;12.85;100.00
49645;BME280;36494;50.730;-1.932;2022-07-05T00:55:44;101913.31;;;12.71;100.00
49645;BME280;36494;50.730;-1.932;2022-07-05T00:58:08;101910.77;;;12.74;100.00
49645;BME280;36494;50.730;-1.932;2022-07-05T01:00:34;101912.72;;;12.73;100.00
49645;BME280;36494;50.730;-1.932;2022-07-05T01:02:59;101909.27;;;12.66;100.00
49645;BME280;36494;50.730;-1.932;2022-07-05T01:05:24;101907.09;;;12.64;100.00
49645;BME280;36494;50.730;-1.932;2022-07-05T01:07:50;101902.91;;;12.59;100.00
49645;BME280;36494;50.730;-1.932;2022-07-05T01:10:16;101900.10;;;12.66;100.00
49645;BME280;36494;50.730;-1.932;2022-07-05T01:12:41;101901.14;;;12.56;100.00
49645;BME280;36494;50.730;-1.932;2022-07-05T01:15:07;101903.47;;;12.42;100.00
49645;BME280;36494;50.730;-1.932;2022-07-05T01:17:33;101905.22;;;12.46;100.00
49645;BME280;36494;50.730;-1.932;2022-07-05T01:19:57;101906.82;;;12.44;100.00
49645;BME280;36494;50.730;-1.932;2022-07-05T01:22:25;101905.86;;;12.39;100.00
49645;BME280;36494;50.730;-1.932;2022-07-05T01:24:49;101905.52;;;12.36;100.00
49645;BME280;36494;50.730;-1.932;2022-07-05T01:27:13;101907.85;;;12.29;100.00
49645;BME280;36494;50.730;-1.932;2022-07-05T01:29:39;101911.36;;;12.29;100.00
49645;BME280;36494;50.730;-1.932;2022-07-05T01:32:04;101908.59;;;12.29;100.00
49645;BME280;36494;50.730;-1.932;2022-07-05T01:34:29;101914.54;;;12.28;100.00
49645;BME280;36494;50.730;-1.932;2022-07-05T01:36:54;101912.96;;;12.25;100.00
49645;BME280;36494;50.730;-1.932;2022-07-05T01:39:20;101914.94;;;12.25;100.00
49645;BME280;36494;50.730;-1.932;2022-07-05T01:41:47;101913.85;;;12.23;100.00
49645;BME280;36494;50.730;-1.932;2022-07-05T01:44:11;101911.21;;;12.27;100.00
49645;BME280;36494;50.730;-1.932;2022-07-05T01:46:36;101911.18;;;12.26;100.00
49645;BME280;36494;50.730;-1.932;2022-07-05T01:49:04;101910.42;;;12.24;100.00
49645;BME280;36494;50.730;-1.932;2022-07-05T01:51:33;101912.13;;;12.27;100.00
49645;BME280;36494;50.730;-1.932;2022-07-05T01:53:53;101911.71;;;12.25;100.00
49645;BME280;36494;50.730;-1.932;2022-07-05T01:56:17;101910.11;;;12.24;100.00
49645;BME280;36494;50.730;-1.932;2022-07-05T01:58:43;101912.18;;;12.25;100.00
49645;BME280;36494;50.730;-1.932;2022-07-05T02:01:08;101913.12;;;12.25;100.00
49645;BME280;36494;50.730;-1.932;2022-07-05T02:03:34;101913.63;;;12.18;100.00
49645;BME280;36494;50.730;-1.932;2022-07-05T02:05:59;101914.86;;;12.17;100.00
49645;BME280;36494;50.730;-1.932;2022-07-05T02:08:29;101913.74;;;12.15;100.00
49645;BME280;36494;50.730;-1.932;2022-07-05T02:10:49;101912.54;;;12.17;100.00
49645;BME280;36494;50.730;-1.932;2022-07-05T02:13:15;101911.64;;;12.16;100.00
49645;BME280;36494;50.730;-1.932;2022-07-05T02:15:41;101907.63;;;12.15;100.00
49645;BME280;36494;50.730;-1.932;2022-07-05T02:18:06;101909.00;;;12.13;100.00
49645;BME280;36494;50.730;-1.932;2022-07-05T02:20:32;101904.48;;;12.11;100.00
49645;BME280;36494;50.730;-1.932;2022-07-05T02:22:56;101905.47;;;12.11;100.00
49645;BME280;36494;50.730;-1.932;2022-07-05T02:25:21;101902.98;;;12.09;100.00
49645;BME280;36494;50.730;-1.932;2022-07-05T02:27:47;101900.77;;;12.06;100.00
49645;BME280;36494;50.730;-1.932;2022-07-05T02:30:13;101899.09;;;12.04;100.00
49645;BME280;36494;50.730;-1.932;2022-07-05T02:32:38;101904.40;;;12.05;100.00
49645;BME280;36494;50.730;-1.932;2022-07-05T02:35:04;101905.59;;;12.03;100.00
49645;BME280;36494;50.730;-1.932;2022-07-05T02:37:28;101905.95;;;12.01;100.00
49645;BME280;36494;50.730;-1.932;2022-07-05T02:39:54;101902.79;;;11.96;100.00
49645;BME280;36494;50.730;-1.932;2022-07-05T02:42:19;101899.72;;;11.95;100.00
49645;BME280;36494;50.730;-1.932;2022-07-05T02:44:44;101898.80;;;11.95;100.00
49645;BME280;36494;50.730;-1.932;2022-07-05T02:47:10;101900.40;;;11.94;100.00
49645;BME280;36494;50.730;-1.932;2022-07-05T02:49:35;101896.07;;;11.90;100.00
49645;BME280;36494;50.730;-1.932;2022-07-05T02:52:00;101896.78;;;11.88;100.00
49645;BME280;36494;50.730;-1.932;2022-07-05T02:54:26;101896.16;;;11.87;100.00
49645;BME280;36494;50.730;-1.932;2022-07-05T02:56:51;101898.39;;;11.86;100.00
49645;BME280;36494;50.730;-1.932;2022-07-05T02:59:16;101899.65;;;11.82;100.00
49645;BME280;36494;50.730;-1.932;2022-07-05T03:01:42;101899.87;;;11.79;100.00
49645;BME280;36494;50.730;-1.932;2022-07-05T03:04:07;101897.92;;;11.78;100.00
49645;BME280;36494;50.730;-1.932;2022-07-05T03:06:33;101897.86;;;11.76;100.00
49645;BME280;36494;50.730;-1.932;2022-07-05T03:08:59;101898.23;;;11.75;100.00
49645;BME280;36494;50.730;-1.932;2022-07-05T03:11:24;101899.54;;;11.74;100.00
49645;BME280;36494;50.730;-1.932;2022-07-05T03:13:48;101901.30;;;11.73;100.00
49645;BME280;36494;50.730;-1.932;2022-07-05T03:16:14;101908.07;;;11.70;100.00
49645;BME280;36494;50.730;-1.932;2022-07-05T03:18:39;101906.84;;;11.69;100.00
49645;BME280;36494;50.730;-1.932;2022-07-05T03:21:05;101910.42;;;11.66;100.00
49645;BME280;36494;50.730;-1.932;2022-07-05T03:23:30;101909.96;;;11.66;100.00
49645;BME280;36494;50.730;-1.932;2022-07-05T03:25:55;101907.27;;;11.65;100.00
49645;BME280;36494;50.730;-1.932;2022-07-05T03:28:21;101905.37;;;11.63;100.00
49645;BME280;36494;50.730;-1.932;2022-07-05T03:30:46;101906.98;;;11.63;100.00
49645;BME280;36494;50.730;-1.932;2022-07-05T03:33:11;101909.77;;;11.62;100.00
49645;BME280;36494;50.730;-1.932;2022-07-05T03:35:37;101907.37;;;11.60;100.00
49645;BME280;36494;50.730;-1.932;2022-07-05T03:38:02;101907.00;;;11.58;100.00
49645;BME280;36494;50.730;-1.932;2022-07-05T03:40:28;101905.09;;;11.55;100.00
49645;BME280;36494;50.730;-1.932;2022-07-05T03:42:53;101910.93;;;11.52;100.00
49645;BME280;36494;50.730;-1.932;2022-07-05T03:45:19;101916.03;;;11.49;100.00
49645;BME280;36494;50.730;-1.932;2022-07-05T03:47:44;101916.05;;;11.51;100.00
49645;BME280;36494;50.730;-1.932;2022-07-05T03:50:09;101915.79;;;11.49;100.00
49645;BME280;36494;50.730;-1.932;2022-07-05T03:52:35;101919.22;;;11.45;100.00
49645;BME280;36494;50.730;-1.932;2022-07-05T03:55:00;101923.30;;;11.41;100.00
49645;BME280;36494;50.730;-1.932;2022-07-05T03:57:25;101924.55;;;11.43;100.00
49645;BME280;36494;50.730;-1.932;2022-07-05T03:59:51;101923.85;;;11.41;100.00
49645;BME280;36494;50.730;-1.932;2022-07-05T04:02:16;101921.88;;;11.40;100.00
49645;BME280;36494;50.730;-1.932;2022-07-05T04:04:42;101921.76;;;11.39;100.00
49645;BME280;36494;50.730;-1.932;2022-07-05T04:07:07;101926.35;;;11.40;100.00
49645;BME280;36494;50.730;-1.932;2022-07-05T04:09:32;101927.90;;;11.35;100.00
49645;BME280;36494;50.730;-1.932;2022-07-05T04:11:58;101922.14;;;11.34;100.00
49645;BME280;36494;50.730;-1.932;2022-07-05T04:14:23;101923.84;;;11.34;100.00
49645;BME280;36494;50.730;-1.932;2022-07-05T04:16:48;101929.10;;;11.28;100.00
49645;BME280;36494;50.730;-1.932;2022-07-05T04:19:14;101931.46;;;11.32;100.00
49645;BME280;36494;50.730;-1.932;2022-07-05T04:21:39;101933.58;;;11.29;100.00
49645;BME280;36494;50.730;-1.932;2022-07-05T04:24:05;101931.42;;;11.31;100.00
49645;BME280;36494;50.730;-1.932;2022-07-05T04:26:30;101933.27;;;11.31;100.00
49645;BME280;36494;50.730;-1.932;2022-07-05T04:28:55;101933.17;;;11.31;100.00
49645;BME280;36494;50.730;-1.932;2022-07-05T04:31:21;101933.33;;;11.30;100.00
49645;BME280;36494;50.730;-1.932;2022-07-05T04:33:46;101939.70;;;11.33;100.00
49645;BME280;36494;50.730;-1.932;2022-07-05T04:36:11;101939.67;;;11.31;100.00
49645;BME280;36494;50.730;-1.932;2022-07-05T04:38:37;101945.07;;;11.32;100.00
49645;BME280;36494;50.730;-1.932;2022-07-05T04:41:02;101947.39;;;11.32;100.00
49645;BME280;36494;50.730;-1.932;2022-07-05T04:43:28;101949.37;;;11.29;100.00
49645;BME280;36494;50.730;-1.932;2022-07-05T04:45:53;101951.03;;;11.27;100.00
49645;BME280;36494;50.730;-1.932;2022-07-05T04:48:18;101952.87;;;11.28;100.00
49645;BME280;36494;50.730;-1.932;2022-07-05T04:50:43;101950.33;;;11.29;100.00
49645;BME280;36494;50.730;-1.932;2022-07-05T04:53:09;101951.86;;;11.32;100.00
49645;BME280;36494;50.730;-1.932;2022-07-05T04:55:34;101954.91;;;11.32;100.00
49645;BME280;36494;50.730;-1.932;2022-07-05T04:58:00;101958.38;;;11.34;100.00
49645;BME280;36494;50.730;-1.932;2022-07-05T05:00:25;101963.96;;;11.39;100.00
49645;BME280;36494;50.730;-1.932;2022-07-05T05:02:50;101970.70;;;11.38;100.00
49645;BME280;36494;50.730;-1.932;2022-07-05T05:05:16;101972.63;;;11.41;100.00
49645;BME280;36494;50.730;-1.932;2022-07-05T05:07:42;101974.54;;;11.48;100.00
49645;BME280;36494;50.730;-1.932;2022-07-05T05:10:07;101977.59;;;11.51;100.00
49645;BME280;36494;50.730;-1.932;2022-07-05T05:12:32;101978.84;;;11.54;100.00
49645;BME280;36494;50.730;-1.932;2022-07-05T05:14:57;101980.02;;;11.59;100.00
49645;BME280;36494;50.730;-1.932;2022-07-05T05:17:22;101983.96;;;11.63;100.00
49645;BME280;36494;50.730;-1.932;2022-07-05T05:19:47;101989.89;;;11.68;100.00
49645;BME280;36494;50.730;-1.932;2022-07-05T05:22:13;101993.47;;;11.71;100.00
49645;BME280;36494;50.730;-1.932;2022-07-05T05:24:38;101998.76;;;11.75;100.00
49645;BME280;36494;50.730;-1.932;2022-07-05T05:27:04;102001.89;;;11.77;100.00
49645;BME280;36494;50.730;-1.932;2022-07-05T05:29:28;102007.82;;;11.81;100.00
49645;BME280;36494;50.730;-1.932;2022-07-05T05:31:54;102007.00;;;11.87;100.00
49645;BME280;36494;50.730;-1.932;2022-07-05T05:34:19;102008.43;;;11.91;100.00
49645;BME280;36494;50.730;-1.932;2022-07-05T05:36:44;102009.15;;;11.95;100.00
49645;BME280;36494;50.730;-1.932;2022-07-05T05:39:10;102008.41;;;12.00;100.00
49645;BME280;36494;50.730;-1.932;2022-07-05T05:41:35;102008.70;;;12.07;100.00
49645;BME280;36494;50.730;-1.932;2022-07-05T05:44:01;102007.01;;;12.11;100.00
49645;BME280;36494;50.730;-1.932;2022-07-05T05:46:26;102005.99;;;12.13;100.00
49645;BME280;36494;50.730;-1.932;2022-07-05T05:48:51;102007.43;;;12.20;100.00
49645;BME280;36494;50.730;-1.932;2022-07-05T05:51:17;102007.05;;;12.21;100.00
49645;BME280;36494;50.730;-1.932;2022-07-05T05:53:42;102011.78;;;12.25;100.00
49645;BME280;36494;50.730;-1.932;2022-07-05T05:56:07;102011.15;;;12.30;100.00
49645;BME280;36494;50.730;-1.932;2022-07-05T05:58:33;102006.65;;;12.36;100.00
49645;BME280;36494;50.730;-1.932;2022-07-05T06:00:58;102008.03;;;12.43;100.00
49645;BME280;36494;50.730;-1.932;2022-07-05T06:03:25;102008.30;;;12.48;100.00
49645;BME280;36494;50.730;-1.932;2022-07-05T06:05:49;102008.99;;;12.56;100.00
49645;BME280;36494;50.730;-1.932;2022-07-05T06:08:15;102009.12;;;12.60;100.00
49645;BME280;36494;50.730;-1.932;2022-07-05T06:10:40;102008.90;;;12.67;100.00
49645;BME280;36494;50.730;-1.932;2022-07-05T06:13:08;102017.08;;;12.75;100.00
49645;BME280;36494;50.730;-1.932;2022-07-05T06:15:30;102015.81;;;12.82;100.00
49645;BME280;36494;50.730;-1.932;2022-07-05T06:17:55;102018.07;;;12.88;100.00
49645;BME280;36494;50.730;-1.932;2022-07-05T06:20:22;102018.88;;;12.94;100.00
49645;BME280;36494;50.730;-1.932;2022-07-05T06:22:47;102019.35;;;13.00;100.00
49645;BME280;36494;50.730;-1.932;2022-07-05T06:25:12;102021.53;;;13.11;100.00
49645;BME280;36494;50.730;-1.932;2022-07-05T06:27:38;102023.11;;;13.20;100.00
49645;BME280;36494;50.730;-1.932;2022-07-05T06:30:03;102023.47;;;13.24;100.00
49645;BME280;36494;50.730;-1.932;2022-07-05T06:32:27;102025.61;;;13.29;100.00
49645;BME280;36494;50.730;-1.932;2022-07-05T06:34:53;102027.81;;;13.38;100.00
49645;BME280;36494;50.730;-1.932;2022-07-05T06:37:19;102032.31;;;13.48;100.00
49645;BME280;36494;50.730;-1.932;2022-07-05T06:39:44;102036.06;;;13.55;100.00
49645;BME280;36494;50.730;-1.932;2022-07-05T06:42:09;102040.74;;;13.66;100.00
49645;BME280;36494;50.730;-1.932;2022-07-05T06:44:35;102038.04;;;13.70;100.00
49645;BME280;36494;50.730;-1.932;2022-07-05T06:47:00;102037.83;;;13.76;100.00
49645;BME280;36494;50.730;-1.932;2022-07-05T06:49:25;102032.47;;;13.79;100.00
49645;BME280;36494;50.730;-1.932;2022-07-05T06:51:51;102034.71;;;13.94;100.00
49645;BME280;36494;50.730;-1.932;2022-07-05T06:54:16;102037.10;;;13.99;100.00
49645;BME280;36494;50.730;-1.932;2022-07-05T06:56:41;102041.47;;;14.10;100.00
49645;BME280;36494;50.730;-1.932;2022-07-05T06:59:07;102040.56;;;14.17;100.00
49645;BME280;36494;50.730;-1.932;2022-07-05T07:01:32;102045.05;;;14.22;100.00
49645;BME280;36494;50.730;-1.932;2022-07-05T07:03:57;102044.36;;;14.29;100.00
49645;BME280;36494;50.730;-1.932;2022-07-05T07:06:23;102045.09;;;14.35;100.00
49645;BME280;36494;50.730;-1.932;2022-07-05T07:08:48;102044.75;;;14.43;100.00
49645;BME280;36494;50.730;-1.932;2022-07-05T07:11:13;102044.06;;;14.52;100.00
49645;BME280;36494;50.730;-1.932;2022-07-05T07:13:39;102047.23;;;14.58;100.00
49645;BME280;36494;50.730;-1.932;2022-07-05T07:16:04;102044.16;;;14.60;100.00
49645;BME280;36494;50.730;-1.932;2022-07-05T07:18:29;102049.40;;;14.69;100.00
49645;BME280;36494;50.730;-1.932;2022-07-05T07:20:55;102048.84;;;14.73;100.00
49645;BME280;36494;50.730;-1.932;2022-07-05T07:23:20;102051.52;;;14.82;100.00
49645;BME280;36494;50.730;-1.932;2022-07-05T07:25:45;102050.04;;;14.87;100.00
49645;BME280;36494;50.730;-1.932;2022-07-05T07:28:10;102054.66;;;14.95;100.00
49645;BME280;36494;50.730;-1.932;2022-07-05T07:30:36;102054.52;;;15.02;100.00
49645;BME280;36494;50.730;-1.932;2022-07-05T07:33:01;102054.08;;;15.06;100.00
49645;BME280;36494;50.730;-1.932;2022-07-05T07:35:27;102053.91;;;15.16;100.00
49645;BME280;36494;50.730;-1.932;2022-07-05T07:37:52;102054.13;;;15.26;100.00
49645;BME280;36494;50.730;-1.932;2022-07-05T07:40:17;102051.08;;;15.32;100.00
49645;BME280;36494;50.730;-1.932;2022-07-05T07:42:42;102048.59;;;15.43;100.00
49645;BME280;36494;50.730;-1.932;2022-07-05T07:45:09;102049.87;;;15.50;100.00
49645;BME280;36494;50.730;-1.932;2022-07-05T07:47:35;102049.19;;;15.62;100.00
49645;BME280;36494;50.730;-1.932;2022-07-05T07:49:59;102049.11;;;15.68;100.00
49645;BME280;36494;50.730;-1.932;2022-07-05T07:52:25;102047.97;;;15.76;100.00
49645;BME280;36494;50.730;-1.932;2022-07-05T07:54:50;102047.34;;;15.83;100.00
49645;BME280;36494;50.730;-1.932;2022-07-05T07:57:16;102046.84;;;15.86;100.00
49645;BME280;36494;50.730;-1.932;2022-07-05T07:59:41;102051.77;;;15.93;100.00
49645;BME280;36494;50.730;-1.932;2022-07-05T08:02:06;102051.60;;;15.99;100.00
49645;BME280;36494;50.730;-1.932;2022-07-05T08:04:31;102056.11;;;16.02;100.00
49645;BME280;36494;50.730;-1.932;2022-07-05T08:06:56;102056.98;;;16.07;100.00
49645;BME280;36494;50.730;-1.932;2022-07-05T08:09:22;102058.11;;;16.17;100.00
49645;BME280;36494;50.730;-1.932;2022-07-05T08:11:47;102059.58;;;16.28;100.00
49645;BME280;36494;50.730;-1.932;2022-07-05T08:14:13;102058.81;;;16.35;100.00
49645;BME280;36494;50.730;-1.932;2022-07-05T08:16:38;102057.16;;;16.44;100.00
49645;BME280;36494;50.730;-1.932;2022-07-05T08:19:03;102055.72;;;16.47;100.00
49645;BME280;36494;50.730;-1.932;2022-07-05T08:21:28;102058.94;;;16.48;100.00
49645;BME280;36494;50.730;-1.932;2022-07-05T08:23:54;102064.53;;;16.54;100.00
49645;BME280;36494;50.730;-1.932;2022-07-05T08:26:19;102059.39;;;16.65;100.00
49645;BME280;36494;50.730;-1.932;2022-07-05T08:28:44;102058.40;;;16.62;100.00
49645;BME280;36494;50.730;-1.932;2022-07-05T08:31:10;102066.20;;;16.64;100.00
49645;BME280;36494;50.730;-1.932;2022-07-05T08:33:35;102066.90;;;16.56;100.00
49645;BME280;36494;50.730;-1.932;2022-07-05T08:36:00;102065.24;;;16.60;100.00
49645;BME280;36494;50.730;-1.932;2022-07-05T08:38:26;102065.66;;;16.74;100.00
49645;BME280;36494;50.730;-1.932;2022-07-05T08:40:51;102068.38;;;16.71;100.00
49645;BME280;36494;50.730;-1.932;2022-07-05T08:43:17;102067.16;;;16.55;100.00
49645;BME280;36494;50.730;-1.932;2022-07-05T08:45:43;102068.47;;;16.55;100.00
49645;BME280;36494;50.730;-1.932;2022-07-05T08:48:09;102068.47;;;16.71;100.00
49645;BME280;36494;50.730;-1.932;2022-07-05T08:50:33;102070.05;;;16.78;100.00
49645;BME280;36494;50.730;-1.932;2022-07-05T08:52:59;102069.65;;;16.87;100.00
49645;BME280;36494;50.730;-1.932;2022-07-05T08:55:23;102067.65;;;16.92;100.00
49645;BME280;36494;50.730;-1.932;2022-07-05T08:57:49;102069.51;;;16.98;100.00
49645;BME280;36494;50.730;-1.932;2022-07-05T09:00:14;102071.28;;;17.06;100.00
49645;BME280;36494;50.730;-1.932;2022-07-05T09:02:39;102068.35;;;17.16;100.00
49645;BME280;36494;50.730;-1.932;2022-07-05T09:05:05;102070.17;;;17.25;100.00
49645;BME280;36494;50.730;-1.932;2022-07-05T09:07:31;102070.49;;;17.28;100.00
49645;BME280;36494;50.730;-1.932;2022-07-05T09:09:56;102071.27;;;17.34;100.00
49645;BME280;36494;50.730;-1.932;2022-07-05T09:12:20;102073.48;;;17.47;100.00
49645;BME280;36494;50.730;-1.932;2022-07-05T09:14:45;102078.29;;;17.60;100.00
49645;BME280;36494;50.730;-1.932;2022-07-05T09:17:11;102081.79;;;17.71;100.00
49645;BME280;36494;50.730;-1.932;2022-07-05T09:19:36;102076.99;;;17.88;100.00
49645;BME280;36494;50.730;-1.932;2022-07-05T09:22:02;102075.49;;;17.98;100.00
49645;BME280;36494;50.730;-1.932;2022-07-05T09:24:28;102076.32;;;18.07;100.00
49645;BME280;36494;50.730;-1.932;2022-07-05T09:27:02;102074.26;;;18.17;100.00
49645;BME280;36494;50.730;-1.932;2022-07-05T09:29:19;102075.07;;;18.28;100.00
49645;BME280;36494;50.730;-1.932;2022-07-05T09:31:44;102075.58;;;18.38;100.00
49645;BME280;36494;50.730;-1.932;2022-07-05T09:34:09;102076.17;;;18.44;100.00
49645;BME280;36494;50.730;-1.932;2022-07-05T09:36:48;102079.82;;;18.46;100.00
49645;BME280;36494;50.730;-1.932;2022-07-05T09:38:58;102079.34;;;18.63;96.42
49645;BME280;36494;50.730;-1.932;2022-07-05T09:41:24;102077.51;;;18.61;94.65
49645;BME280;36494;50.730;-1.932;2022-07-05T09:43:49;102083.74;;;18.97;100.00
49645;BME280;36494;50.730;-1.932;2022-07-05T09:46:14;102079.63;;;19.17;99.45
49645;BME280;36494;50.730;-1.932;2022-07-05T09:51:07;102085.08;;;18.93;97.84
49645;BME280;36494;50.730;-1.932;2022-07-05T09:53:44;102080.46;;;18.50;100.00
49645;BME280;36494;50.730;-1.932;2022-07-05T09:56:01;102081.86;;;18.82;100.00
49645;BME280;36494;50.730;-1.932;2022-07-05T09:58:25;102079.28;;;18.90;100.00
49645;BME280;36494;50.730;-1.932;2022-07-05T10:00:46;102078.48;;;19.26;96.53
49645;BME280;36494;50.730;-1.932;2022-07-05T10:03:12;102075.95;;;19.53;93.87
49645;BME280;36494;50.730;-1.932;2022-07-05T10:05:37;102069.94;;;19.89;95.41
49645;BME280;36494;50.730;-1.932;2022-07-05T10:08:04;102067.42;;;19.93;85.61
49645;BME280;36494;50.730;-1.932;2022-07-05T10:10:29;102069.74;;;19.77;88.50
49645;BME280;36494;50.730;-1.932;2022-07-05T10:12:56;102070.82;;;19.61;87.80
49645;BME280;36494;50.730;-1.932;2022-07-05T10:15:20;102067.90;;;19.79;87.16
49645;BME280;36494;50.730;-1.932;2022-07-05T10:17:46;102064.13;;;20.26;82.17
49645;BME280;36494;50.730;-1.932;2022-07-05T10:20:16;102063.87;;;19.91;80.07
49645;BME280;36494;50.730;-1.932;2022-07-05T10:22:35;102067.31;;;19.84;83.44
49645;BME280;36494;50.730;-1.932;2022-07-05T10:25:00;102069.46;;;19.61;84.98
49645;BME280;36494;50.730;-1.932;2022-07-05T10:27:27;102073.42;;;19.53;86.99
49645;BME280;36494;50.730;-1.932;2022-07-05T10:29:52;102079.84;;;19.50;87.06
49645;BME280;36494;50.730;-1.932;2022-07-05T10:32:17;102082.91;;;19.33;87.43
49645;BME280;36494;50.730;-1.932;2022-07-05T10:34:42;102079.83;;;19.50;89.44
49645;BME280;36494;50.730;-1.932;2022-07-05T10:37:07;102080.62;;;19.72;85.94
49645;BME280;36494;50.730;-1.932;2022-07-05T10:39:34;102085.53;;;19.58;81.90
49645;BME280;36494;50.730;-1.932;2022-07-05T10:41:58;102082.61;;;19.69;84.26
49645;BME280;36494;50.730;-1.932;2022-07-05T10:44:29;102083.00;;;19.77;81.59
49645;BME280;36494;50.730;-1.932;2022-07-05T10:46:48;102082.40;;;19.96;85.08
49645;BME280;36494;50.730;-1.932;2022-07-05T10:49:15;102092.93;;;19.85;82.99
49645;BME280;36494;50.730;-1.932;2022-07-05T10:51:39;102092.03;;;19.66;77.49
49645;BME280;36494;50.730;-1.932;2022-07-05T10:54:04;102094.25;;;19.65;81.96
49645;BME280;36494;50.730;-1.932;2022-07-05T10:56:29;102094.20;;;19.86;88.54
49645;BME280;36494;50.730;-1.932;2022-07-05T10:59:05;102095.63;;;19.60;89.35
49645;BME280;36494;50.730;-1.932;2022-07-05T11:01:34;102098.25;;;19.73;92.41
49645;BME280;36494;50.730;-1.932;2022-07-05T11:03:47;102100.97;;;19.24;99.05
49645;BME280;36494;50.730;-1.932;2022-07-05T11:06:18;102096.38;;;19.61;100.00
49645;BME280;36494;50.730;-1.932;2022-07-05T11:11:10;102095.28;;;19.89;94.46
49645;BME280;36494;50.730;-1.932;2022-07-05T11:13:36;102092.78;;;20.03;92.54
49645;BME280;36494;50.730;-1.932;2022-07-05T11:18:23;102094.39;;;20.35;89.23
49645;BME280;36494;50.730;-1.932;2022-07-05T11:20:43;102090.60;;;20.34;87.75
49645;BME280;36494;50.730;-1.932;2022-07-05T11:23:10;102089.32;;;20.31;86.35
49645;BME280;36494;50.730;-1.932;2022-07-05T11:25:35;102084.58;;;20.62;85.54
49645;BME280;36494;50.730;-1.932;2022-07-05T11:28:00;102081.35;;;20.53;87.72
49645;BME280;36494;50.730;-1.932;2022-07-05T11:30:24;102078.51;;;20.89;84.24
49645;BME280;36494;50.730;-1.932;2022-07-05T11:32:49;102074.08;;;21.12;79.12
49645;BME280;36494;50.730;-1.932;2022-07-05T11:35:16;102076.61;;;20.67;76.26
49645;BME280;36494;50.730;-1.932;2022-07-05T11:42:30;102075.04;;;21.00;75.98
49645;BME280;36494;50.730;-1.932;2022-07-05T11:44:57;102081.59;;;21.03;82.37
49645;BME280;36494;50.730;-1.932;2022-07-05T11:47:21;102081.90;;;20.84;77.86
49645;BME280;36494;50.730;-1.932;2022-07-05T11:49:52;102079.90;;;21.06;79.24
49645;BME280;36494;50.730;-1.932;2022-07-05T11:52:11;102083.22;;;21.17;77.51
49645;BME280;36494;50.730;-1.932;2022-07-05T11:54:37;102086.44;;;20.77;79.09
49645;BME280;36494;50.730;-1.932;2022-07-05T11:57:02;102089.86;;;20.87;83.48
49645;BME280;36494;50.730;-1.932;2022-07-05T11:59:28;102089.63;;;20.85;81.16
49645;BME280;36494;50.730;-1.932;2022-07-05T12:01:54;102091.71;;;20.99;81.41
49645;BME280;36494;50.730;-1.932;2022-07-05T12:04:22;102089.49;;;21.22;83.89
49645;BME280;36494;50.730;-1.932;2022-07-05T12:06:44;102090.55;;;20.91;78.09
49645;BME280;36494;50.730;-1.932;2022-07-05T12:09:09;102086.65;;;21.02;80.88
49645;BME280;36494;50.730;-1.932;2022-07-05T12:11:35;102085.80;;;21.30;80.05
49645;BME280;36494;50.730;-1.932;2022-07-05T12:14:01;102082.49;;;21.19;78.85
49645;BME280;36494;50.730;-1.932;2022-07-05T12:16:26;102082.03;;;21.06;80.91
49645;BME280;36494;50.730;-1.932;2022-07-05T12:18:53;102080.88;;;21.02;79.60
49645;BME280;36494;50.730;-1.932;2022-07-05T12:21:17;102081.03;;;21.12;87.41
49645;BME280;36494;50.730;-1.932;2022-07-05T12:23:43;102077.34;;;21.32;81.24
49645;BME280;36494;50.730;-1.932;2022-07-05T12:26:08;102072.78;;;21.28;81.07
49645;BME280;36494;50.730;-1.932;2022-07-05T12:28:33;102066.92;;;21.17;79.07
49645;BME280;36494;50.730;-1.932;2022-07-05T12:30:59;102062.80;;;21.51;88.11
49645;BME280;36494;50.730;-1.932;2022-07-05T12:33:24;102060.25;;;21.63;79.25